sensor_id;sensor_type;location;lat;lon;timestamp;temperature;humidity
38604;DHT22;24924;50.054;8.790;2024-02-21T00:02:11;8.90;99.90
38604;DHT22;24924;50.054;8.790;2024-02-21T00:04:57;8.80;99.90
38604;DHT22;24924;50.054;8.790;2024-02-21T00:07:43;8.70;99.90
38604;DHT22;24924;50.054;8.790;2024-02-21T00:10:29;8.60;99.90
38604;DHT22;24924;50.054;8.790;2024-02-21T00:13:17;8.60;99.90
38604;DHT22;24924;50.054;8.790;2024-02-21T00:16:04;8.50;99.90
38604;DHT22;24924;50.054;8.790;2024-02-21T00:18:50;8.40;99.90
38604;DHT22;24924;50.054;8.790;2024-02-21T00:21:36;8.40;99.90
38604;DHT22;24924;50.054;8.790;2024-02-21T00:24:22;8.40;99.90
38604;DHT22;24924;50.054;8.790;2024-02-21T00:27:09;8.30;99.90
38604;DHT22;24924;50.054;8.790;2024-02-21T00:29:55;8.20;99.90
38604;DHT22;24924;50.054;8.790;2024-02-21T00:32:41;8.20;99.90
38604;DHT22;24924;50.054;8.790;2024-02-21T00:35:27;8.10;99.90
38604;DHT22;24924;50.054;8.790;2024-02-21T00:38:14;8.20;99.90
38604;DHT22;24924;50.054;8.790;2024-02-21T00:41:00;8.20;99.90
38604;DHT22;24924;50.054;8.790;2024-02-21T00:43:46;8.20;99.90
38604;DHT22;24924;50.054;8.790;2024-02-21T00:46:34;8.20;99.90
38604;DHT22;24924;50.054;8.790;2024-02-21T00:49:20;8.20;99.90
38604;DHT22;24924;50.054;8.790;2024-02-21T00:52:06;8.20;99.90
38604;DHT22;24924;50.054;8.790;2024-02-21T00:54:53;8.20;99.90
38604;DHT22;24924;50.054;8.790;2024-02-21T00:57:39;8.20;99.90
38604;DHT22;24924;50.054;8.790;2024-02-21T01:00:25;8.20;99.90
38604;DHT22;24924;50.054;8.790;2024-02-21T01:03:11;8.30;99.90
38604;DHT22;24924;50.054;8.790;2024-02-21T01:05:57;8.20;99.90
38604;DHT22;24924;50.054;8.790;2024-02-21T01:08:43;8.20;99.90
38604;DHT22;24924;50.054;8.790;2024-02-21T01:11:30;8.20;99.90
38604;DHT22;24924;50.054;8.790;2024-02-21T01:14:16;8.20;99.90
38604;DHT22;24924;50.054;8.790;2024-02-21T01:17:02;8.20;99.90
38604;DHT22;24924;50.054;8.790;2024-02-21T01:19:48;8.20;99.90
38604;DHT22;24924;50.054;8.790;2024-02-21T01:22:34;8.20;99.90
38604;DHT22;24924;50.054;8.790;2024-02-21T01:25:21;8.20;99.90
38604;DHT22;24924;50.054;8.790;2024-02-21T01:28:07;8.30;99.90
38604;DHT22;24924;50.054;8.790;2024-02-21T01:30:53;8.20;99.90
38604;DHT22;24924;50.054;8.790;2024-02-21T01:33:39;8.30;99.90
38604;DHT22;24924;50.054;8.790;2024-02-21T01:36:25;8.20;99.90
38604;DHT22;24924;50.054;8.790;2024-02-21T01:39:12;8.20;99.90
38604;DHT22;24924;50.054;8.790;2024-02-21T01:41:58;8.20;99.90
38604;DHT22;24924;50.054;8.790;2024-02-21T01:44:44;8.20;99.90
38604;DHT22;24924;50.054;8.790;2024-02-21T01:47:30;8.20;99.90
38604;DHT22;24924;50.054;8.790;2024-02-21T01:50:17;8.20;99.90
38604;DHT22;24924;50.054;8.790;2024-02-21T01:53:03;8.20;99.90
38604;DHT22;24924;50.054;8.790;2024-02-21T01:55:50;8.20;99.90
38604;DHT22;24924;50.054;8.790;2024-02-21T01:58:37;8.10;99.90
38604;DHT22;24924;50.054;8.790;2024-02-21T02:01:25;8.20;99.90
38604;DHT22;24924;50.054;8.790;2024-02-21T02:04:11;8.20;99.90
38604;DHT22;24924;50.054;8.790;2024-02-21T02:07:00;8.10;99.90
38604;DHT22;24924;50.054;8.790;2024-02-21T02:09:48;8.20;99.90
38604;DHT22;24924;50.054;8.790;2024-02-21T02:12:35;8.10;99.90
38604;DHT22;24924;50.054;8.790;2024-02-21T02:15:22;8.10;99.90
38604;DHT22;24924;50.054;8.790;2024-02-21T02:18:08;8.10;99.90
38604;DHT22;24924;50.054;8.790;2024-02-21T02:20:54;8.10;99.90
38604;DHT22;24924;50.054;8.790;2024-02-21T02:23:41;8.10;99.90
38604;DHT22;24924;50.054;8.790;2024-02-21T02:26:28;8.10;99.90
38604;DHT22;24924;50.054;8.790;2024-02-21T02:29:15;8.10;99.90
38604;DHT22;24924;50.054;8.790;2024-02-21T02:32:02;8.10;99.90
38604;DHT22;24924;50.054;8.790;2024-02-21T02:34:49;8.10;99.90
38604;DHT22;24924;50.054;8.790;2024-02-21T02:37:35;8.10;99.90
38604;DHT22;24924;50.054;8.790;2024-02-21T02:40:21;8.10;99.90
38604;DHT22;24924;50.054;8.790;2024-02-21T02:43:07;8.00;99.90
38604;DHT22;24924;50.054;8.790;2024-02-21T02:45:53;8.00;99.90
38604;DHT22;24924;50.054;8.790;2024-02-21T02:48:40;8.10;99.90
38604;DHT22;24924;50.054;8.790;2024-02-21T02:51:26;8.10;99.90
38604;DHT22;24924;50.054;8.790;2024-02-21T02:54:12;8.10;99.90
38604;DHT22;24924;50.054;8.790;2024-02-21T02:56:58;8.10;99.90
38604;DHT22;24924;50.054;8.790;2024-02-21T02:59:48;8.20;99.90
38604;DHT22;24924;50.054;8.790;2024-02-21T03:02:35;8.10;99.90
38604;DHT22;24924;50.054;8.790;2024-02-21T03:05:21;8.00;99.90
38604;DHT22;24924;50.054;8.790;2024-02-21T03:08:07;8.00;99.90
38604;DHT22;24924;50.054;8.790;2024-02-21T03:10:54;8.00;99.90
38604;DHT22;24924;50.054;8.790;2024-02-21T03:13:40;7.90;99.90
38604;DHT22;24924;50.054;8.790;2024-02-21T03:16:26;7.90;99.90
38604;DHT22;24924;50.054;8.790;2024-02-21T03:19:12;7.90;99.90
38604;DHT22;24924;50.054;8.790;2024-02-21T03:21:58;7.90;99.90
38604;DHT22;24924;50.054;8.790;2024-02-21T03:24:45;8.00;99.90
38604;DHT22;24924;50.054;8.790;2024-02-21T03:27:31;8.00;99.90
38604;DHT22;24924;50.054;8.790;2024-02-21T03:30:17;7.90;99.90
38604;DHT22;24924;50.054;8.790;2024-02-21T03:33:04;7.90;99.90
38604;DHT22;24924;50.054;8.790;2024-02-21T03:35:50;7.90;99.90
38604;DHT22;24924;50.054;8.790;2024-02-21T03:38:36;7.90;99.90
38604;DHT22;24924;50.054;8.790;2024-02-21T03:41:22;7.90;99.90
38604;DHT22;24924;50.054;8.790;2024-02-21T03:44:08;7.80;99.90
38604;DHT22;24924;50.054;8.790;2024-02-21T03:46:55;7.80;99.90
38604;DHT22;24924;50.054;8.790;2024-02-21T03:49:41;7.90;99.90
38604;DHT22;24924;50.054;8.790;2024-02-21T03:52:27;7.90;99.90
38604;DHT22;24924;50.054;8.790;2024-02-21T03:55:13;7.90;99.90
38604;DHT22;24924;50.054;8.790;2024-02-21T03:57:59;8.00;99.90
38604;DHT22;24924;50.054;8.790;2024-02-21T04:00:46;8.00;99.90
38604;DHT22;24924;50.054;8.790;2024-02-21T04:03:32;8.00;99.90
38604;DHT22;24924;50.054;8.790;2024-02-21T04:06:18;8.10;99.90
38604;DHT22;24924;50.054;8.790;2024-02-21T04:09:05;8.10;99.90
38604;DHT22;24924;50.054;8.790;2024-02-21T04:11:51;8.10;99.90
38604;DHT22;24924;50.054;8.790;2024-02-21T04:14:37;8.10;99.90
38604;DHT22;24924;50.054;8.790;2024-02-21T04:17:25;8.10;99.90
38604;DHT22;24924;50.054;8.790;2024-02-21T04:20:17;8.20;99.90
38604;DHT22;24924;50.054;8.790;2024-02-21T04:23:04;8.20;99.90
38604;DHT22;24924;50.054;8.790;2024-02-21T04:25:50;8.10;99.90
38604;DHT22;24924;50.054;8.790;2024-02-21T04:28:36;8.20;99.90
38604;DHT22;24924;50.054;8.790;2024-02-21T04:31:22;8.10;99.90
38604;DHT22;24924;50.054;8.790;2024-02-21T04:34:08;8.10;99.90
38604;DHT22;24924;50.054;8.790;2024-02-21T04:36:55;8.10;99.90
38604;DHT22;24924;50.054;8.790;2024-02-21T04:39:41;8.10;99.90
38604;DHT22;24924;50.054;8.790;2024-02-21T04:42:27;8.10;99.90
38604;DHT22;24924;50.054;8.790;2024-02-21T04:45:13;7.90;99.90
38604;DHT22;24924;50.054;8.790;2024-02-21T04:47:59;7.80;99.90
38604;DHT22;24924;50.054;8.790;2024-02-21T04:50:45;7.80;99.90
38604;DHT22;24924;50.054;8.790;2024-02-21T04:53:32;7.70;99.90
38604;DHT22;24924;50.054;8.790;2024-02-21T04:56:18;7.70;99.90
38604;DHT22;24924;50.054;8.790;2024-02-21T04:59:04;7.70;99.90
38604;DHT22;24924;50.054;8.790;2024-02-21T05:01:50;7.70;99.90
38604;DHT22;24924;50.054;8.790;2024-02-21T05:04:36;7.80;99.90
38604;DHT22;24924;50.054;8.790;2024-02-21T05:07:24;7.80;99.90
38604;DHT22;24924;50.054;8.790;2024-02-21T05:10:10;7.70;99.90
38604;DHT22;24924;50.054;8.790;2024-02-21T05:12:57;7.80;99.90
38604;DHT22;24924;50.054;8.790;2024-02-21T05:15:44;7.80;99.90
38604;DHT22;24924;50.054;8.790;2024-02-21T05:18:30;7.80;99.90
38604;DHT22;24924;50.054;8.790;2024-02-21T05:21:17;7.80;99.90
38604;DHT22;24924;50.054;8.790;2024-02-21T05:24:03;7.80;99.90
38604;DHT22;24924;50.054;8.790;2024-02-21T05:26:49;7.80;99.90
38604;DHT22;24924;50.054;8.790;2024-02-21T05:29:36;7.70;99.90
38604;DHT22;24924;50.054;8.790;2024-02-21T05:32:22;7.70;99.90
38604;DHT22;24924;50.054;8.790;2024-02-21T05:35:08;7.70;99.90
38604;DHT22;24924;50.054;8.790;2024-02-21T05:37:54;7.70;99.90
38604;DHT22;24924;50.054;8.790;2024-02-21T05:40:40;7.70;99.90
38604;DHT22;24924;50.054;8.790;2024-02-21T05:43:27;7.70;99.90
38604;DHT22;24924;50.054;8.790;2024-02-21T05:46:13;7.70;99.90
38604;DHT22;24924;50.054;8.790;2024-02-21T05:48:59;7.70;99.90
38604;DHT22;24924;50.054;8.790;2024-02-21T05:51:45;7.80;99.90
38604;DHT22;24924;50.054;8.790;2024-02-21T05:54:31;7.80;99.90
38604;DHT22;24924;50.054;8.790;2024-02-21T05:57:18;7.70;99.90
38604;DHT22;24924;50.054;8.790;2024-02-21T06:00:06;7.70;99.90
38604;DHT22;24924;50.054;8.790;2024-02-21T06:02:58;7.70;99.90
38604;DHT22;24924;50.054;8.790;2024-02-21T06:05:45;7.70;99.90
38604;DHT22;24924;50.054;8.790;2024-02-21T06:08:31;7.70;99.90
38604;DHT22;24924;50.054;8.790;2024-02-21T06:11:17;7.80;99.90
38604;DHT22;24924;50.054;8.790;2024-02-21T06:14:03;7.70;99.90
38604;DHT22;24924;50.054;8.790;2024-02-21T06:16:49;7.70;99.90
38604;DHT22;24924;50.054;8.790;2024-02-21T06:19:35;7.80;99.90
38604;DHT22;24924;50.054;8.790;2024-02-21T06:22:21;7.70;99.90
38604;DHT22;24924;50.054;8.790;2024-02-21T06:25:08;7.70;99.90
38604;DHT22;24924;50.054;8.790;2024-02-21T06:27:54;7.70;99.90
38604;DHT22;24924;50.054;8.790;2024-02-21T06:30:40;7.70;99.90
38604;DHT22;24924;50.054;8.790;2024-02-21T06:33:26;7.60;99.90
38604;DHT22;24924;50.054;8.790;2024-02-21T06:36:12;7.60;99.90
38604;DHT22;24924;50.054;8.790;2024-02-21T06:38:59;7.60;99.90
38604;DHT22;24924;50.054;8.790;2024-02-21T06:41:45;7.60;99.90
38604;DHT22;24924;50.054;8.790;2024-02-21T06:44:31;7.60;99.90
38604;DHT22;24924;50.054;8.790;2024-02-21T06:47:18;7.60;99.90
38604;DHT22;24924;50.054;8.790;2024-02-21T06:50:04;7.60;99.90
38604;DHT22;24924;50.054;8.790;2024-02-21T06:52:50;7.60;99.90
38604;DHT22;24924;50.054;8.790;2024-02-21T06:55:36;7.60;99.90
38604;DHT22;24924;50.054;8.790;2024-02-21T06:58:22;7.60;99.90
38604;DHT22;24924;50.054;8.790;2024-02-21T07:01:09;7.60;99.90
38604;DHT22;24924;50.054;8.790;2024-02-21T07:03:56;7.60;99.90
38604;DHT22;24924;50.054;8.790;2024-02-21T07:06:42;7.60;99.90
38604;DHT22;24924;50.054;8.790;2024-02-21T07:09:28;7.60;99.90
38604;DHT22;24924;50.054;8.790;2024-02-21T07:12:17;7.70;99.90
38604;DHT22;24924;50.054;8.790;2024-02-21T07:15:03;7.70;99.90
38604;DHT22;24924;50.054;8.790;2024-02-21T07:17:50;7.70;99.90
38604;DHT22;24924;50.054;8.790;2024-02-21T07:20:36;7.80;99.90
38604;DHT22;24924;50.054;8.790;2024-02-21T07:23:23;7.80;99.90
38604;DHT22;24924;50.054;8.790;2024-02-21T07:26:09;7.90;99.90
38604;DHT22;24924;50.054;8.790;2024-02-21T07:28:55;7.90;99.90
38604;DHT22;24924;50.054;8.790;2024-02-21T07:31:42;7.90;99.90
38604;DHT22;24924;50.054;8.790;2024-02-21T07:34:28;8.00;99.90
38604;DHT22;24924;50.054;8.790;2024-02-21T07:37:14;8.00;99.90
38604;DHT22;24924;50.054;8.790;2024-02-21T07:40:00;8.10;99.90
38604;DHT22;24924;50.054;8.790;2024-02-21T07:42:46;8.20;99.90
38604;DHT22;24924;50.054;8.790;2024-02-21T07:45:33;8.30;99.90
38604;DHT22;24924;50.054;8.790;2024-02-21T07:48:19;8.30;99.90
38604;DHT22;24924;50.054;8.790;2024-02-21T07:51:05;8.40;99.90
38604;DHT22;24924;50.054;8.790;2024-02-21T07:53:51;8.30;99.90
38604;DHT22;24924;50.054;8.790;2024-02-21T07:56:37;8.40;99.90
38604;DHT22;24924;50.054;8.790;2024-02-21T07:59:23;8.40;99.90
38604;DHT22;24924;50.054;8.790;2024-02-21T08:02:09;8.40;99.90
38604;DHT22;24924;50.054;8.790;2024-02-21T08:04:56;8.40;99.90
38604;DHT22;24924;50.054;8.790;2024-02-21T08:07:42;8.50;99.90
38604;DHT22;24924;50.054;8.790;2024-02-21T08:10:28;8.50;99.90
38604;DHT22;24924;50.054;8.790;2024-02-21T08:13:14;8.60;99.90
38604;DHT22;24924;50.054;8.790;2024-02-21T08:16:00;8.70;99.90
38604;DHT22;24924;50.054;8.790;2024-02-21T08:18:46;8.80;99.90
38604;DHT22;24924;50.054;8.790;2024-02-21T08:21:33;8.80;99.90
38604;DHT22;24924;50.054;8.790;2024-02-21T08:24:19;8.90;99.90
38604;DHT22;24924;50.054;8.790;2024-02-21T08:27:05;8.90;99.90
38604;DHT22;24924;50.054;8.790;2024-02-21T08:29:51;8.70;99.90
38604;DHT22;24924;50.054;8.790;2024-02-21T08:32:37;8.70;99.90
38604;DHT22;24924;50.054;8.790;2024-02-21T08:35:24;8.80;99.90
38604;DHT22;24924;50.054;8.790;2024-02-21T08:38:10;8.70;99.90
38604;DHT22;24924;50.054;8.790;2024-02-21T08:40:56;8.80;99.90
38604;DHT22;24924;50.054;8.790;2024-02-21T08:43:42;9.10;99.90
38604;DHT22;24924;50.054;8.790;2024-02-21T08:46:28;9.10;99.90
38604;DHT22;24924;50.054;8.790;2024-02-21T08:49:14;9.00;99.90
38604;DHT22;24924;50.054;8.790;2024-02-21T08:52:01;8.80;99.90
38604;DHT22;24924;50.054;8.790;2024-02-21T08:54:48;9.00;99.90
38604;DHT22;24924;50.054;8.790;2024-02-21T08:57:34;9.40;99.90
38604;DHT22;24924;50.054;8.790;2024-02-21T09:00:22;9.40;99.90
38604;DHT22;24924;50.054;8.790;2024-02-21T09:03:12;9.40;99.90
38604;DHT22;24924;50.054;8.790;2024-02-21T09:05:59;9.50;99.90
38604;DHT22;24924;50.054;8.790;2024-02-21T09:08:46;9.50;99.90
38604;DHT22;24924;50.054;8.790;2024-02-21T09:11:32;9.50;99.90
38604;DHT22;24924;50.054;8.790;2024-02-21T09:14:18;9.30;99.90
38604;DHT22;24924;50.054;8.790;2024-02-21T09:17:04;9.40;99.90
38604;DHT22;24924;50.054;8.790;2024-02-21T09:19:50;9.40;99.90
38604;DHT22;24924;50.054;8.790;2024-02-21T09:22:36;9.40;99.90
38604;DHT22;24924;50.054;8.790;2024-02-21T09:25:23;9.30;99.90
38604;DHT22;24924;50.054;8.790;2024-02-21T09:28:09;9.40;99.90
38604;DHT22;24924;50.054;8.790;2024-02-21T09:30:56;9.50;99.90
38604;DHT22;24924;50.054;8.790;2024-02-21T09:33:42;9.40;99.90
38604;DHT22;24924;50.054;8.790;2024-02-21T09:36:28;9.30;99.90
38604;DHT22;24924;50.054;8.790;2024-02-21T09:39:14;9.20;99.90
38604;DHT22;24924;50.054;8.790;2024-02-21T09:42:06;9.70;99.90
38604;DHT22;24924;50.054;8.790;2024-02-21T09:44:55;8.90;99.90
38604;DHT22;24924;50.054;8.790;2024-02-21T09:48:00;8.90;99.90
38604;DHT22;24924;50.054;8.790;2024-02-21T09:50:51;8.90;99.90
38604;DHT22;24924;50.054;8.790;2024-02-21T09:53:40;9.00;99.90
38604;DHT22;24924;50.054;8.790;2024-02-21T09:56:28;9.00;99.90
38604;DHT22;24924;50.054;8.790;2024-02-21T09:59:15;9.10;99.90
38604;DHT22;24924;50.054;8.790;2024-02-21T10:02:02;9.10;99.90
38604;DHT22;24924;50.054;8.790;2024-02-21T10:04:48;9.30;99.90
38604;DHT22;24924;50.054;8.790;2024-02-21T10:07:34;9.60;99.90
38604;DHT22;24924;50.054;8.790;2024-02-21T10:10:20;9.80;99.90
38604;DHT22;24924;50.054;8.790;2024-02-21T10:13:07;9.90;99.90
38604;DHT22;24924;50.054;8.790;2024-02-21T10:16:07;10.00;99.90
38604;DHT22;24924;50.054;8.790;2024-02-21T10:18:54;10.00;99.90
38604;DHT22;24924;50.054;8.790;2024-02-21T10:21:40;10.30;99.90
38604;DHT22;24924;50.054;8.790;2024-02-21T10:24:27;10.60;99.90
38604;DHT22;24924;50.054;8.790;2024-02-21T10:27:14;10.60;99.90
38604;DHT22;24924;50.054;8.790;2024-02-21T10:30:00;10.50;99.90
38604;DHT22;24924;50.054;8.790;2024-02-21T10:32:50;10.30;99.90
38604;DHT22;24924;50.054;8.790;2024-02-21T10:35:38;10.20;99.90
38604;DHT22;24924;50.054;8.790;2024-02-21T10:38:24;10.00;99.90
38604;DHT22;24924;50.054;8.790;2024-02-21T10:41:14;10.10;99.90
38604;DHT22;24924;50.054;8.790;2024-02-21T10:44:05;9.90;99.90
38604;DHT22;24924;50.054;8.790;2024-02-21T10:46:53;10.00;99.90
38604;DHT22;24924;50.054;8.790;2024-02-21T10:49:41;10.10;99.90
38604;DHT22;24924;50.054;8.790;2024-02-21T10:52:52;10.20;99.90
38604;DHT22;24924;50.054;8.790;2024-02-21T10:55:46;10.20;99.90
38604;DHT22;24924;50.054;8.790;2024-02-21T10:58:37;10.10;99.90
38604;DHT22;24924;50.054;8.790;2024-02-21T11:01:24;10.10;99.90
38604;DHT22;24924;50.054;8.790;2024-02-21T11:04:12;10.00;99.90
38604;DHT22;24924;50.054;8.790;2024-02-21T11:07:00;10.10;99.90
38604;DHT22;24924;50.054;8.790;2024-02-21T11:09:53;10.20;99.90
38604;DHT22;24924;50.054;8.790;2024-02-21T11:12:40;10.60;99.90
38604;DHT22;24924;50.054;8.790;2024-02-21T11:15:26;10.60;99.90
38604;DHT22;24924;50.054;8.790;2024-02-21T11:18:23;10.70;99.90
38604;DHT22;24924;50.054;8.790;2024-02-21T11:21:09;11.00;99.90
38604;DHT22;24924;50.054;8.790;2024-02-21T11:23:56;11.20;99.90
38604;DHT22;24924;50.054;8.790;2024-02-21T11:26:43;11.00;99.90
38604;DHT22;24924;50.054;8.790;2024-02-21T11:29:30;11.10;99.90
38604;DHT22;24924;50.054;8.790;2024-02-21T11:32:17;11.00;99.90
38604;DHT22;24924;50.054;8.790;2024-02-21T11:35:05;10.90;99.90
38604;DHT22;24924;50.054;8.790;2024-02-21T11:37:51;10.90;99.90
38604;DHT22;24924;50.054;8.790;2024-02-21T11:40:39;10.80;99.90
38604;DHT22;24924;50.054;8.790;2024-02-21T11:43:26;10.70;99.90
38604;DHT22;24924;50.054;8.790;2024-02-21T11:46:14;10.90;99.90
38604;DHT22;24924;50.054;8.790;2024-02-21T11:49:00;11.00;99.90
38604;DHT22;24924;50.054;8.790;2024-02-21T11:51:47;11.10;99.90
38604;DHT22;24924;50.054;8.790;2024-02-21T11:54:34;11.00;99.90
38604;DHT22;24924;50.054;8.790;2024-02-21T11:57:21;11.00;99.90
38604;DHT22;24924;50.054;8.790;2024-02-21T12:00:15;11.20;99.90
38604;DHT22;24924;50.054;8.790;2024-02-21T12:03:01;11.60;99.90
38604;DHT22;24924;50.054;8.790;2024-02-21T12:05:48;11.30;99.90
38604;DHT22;24924;50.054;8.790;2024-02-21T12:08:41;11.00;99.90
38604;DHT22;24924;50.054;8.790;2024-02-21T12:11:28;11.00;99.90
38604;DHT22;24924;50.054;8.790;2024-02-21T12:14:17;10.90;99.90
38604;DHT22;24924;50.054;8.790;2024-02-21T12:17:03;10.80;99.90
38604;DHT22;24924;50.054;8.790;2024-02-21T12:19:52;10.80;99.90
38604;DHT22;24924;50.054;8.790;2024-02-21T12:22:38;10.70;99.90
38604;DHT22;24924;50.054;8.790;2024-02-21T12:25:25;10.60;99.90
38604;DHT22;24924;50.054;8.790;2024-02-21T12:28:14;10.70;99.90
38604;DHT22;24924;50.054;8.790;2024-02-21T12:31:03;10.90;99.90
38604;DHT22;24924;50.054;8.790;2024-02-21T12:33:50;10.90;99.90
38604;DHT22;24924;50.054;8.790;2024-02-21T12:36:42;10.90;99.90
38604;DHT22;24924;50.054;8.790;2024-02-21T12:39:29;11.10;99.90
38604;DHT22;24924;50.054;8.790;2024-02-21T12:42:15;11.30;99.90
38604;DHT22;24924;50.054;8.790;2024-02-21T12:45:02;11.40;99.90
38604;DHT22;24924;50.054;8.790;2024-02-21T12:47:48;11.20;99.90
38604;DHT22;24924;50.054;8.790;2024-02-21T12:50:35;11.30;99.90
38604;DHT22;24924;50.054;8.790;2024-02-21T12:53:21;11.50;99.90
38604;DHT22;24924;50.054;8.790;2024-02-21T12:56:09;11.60;99.90
38604;DHT22;24924;50.054;8.790;2024-02-21T12:58:55;11.50;99.90
38604;DHT22;24924;50.054;8.790;2024-02-21T13:01:41;11.40;99.90
38604;DHT22;24924;50.054;8.790;2024-02-21T13:04:27;11.40;99.90
38604;DHT22;24924;50.054;8.790;2024-02-21T13:07:13;11.40;99.90
38604;DHT22;24924;50.054;8.790;2024-02-21T13:09:59;11.20;99.90
38604;DHT22;24924;50.054;8.790;2024-02-21T13:12:46;11.10;99.90
38604;DHT22;24924;50.054;8.790;2024-02-21T13:15:32;11.00;99.90
38604;DHT22;24924;50.054;8.790;2024-02-21T13:18:18;11.10;99.90
38604;DHT22;24924;50.054;8.790;2024-02-21T13:21:05;11.70;99.90
38604;DHT22;24924;50.054;8.790;2024-02-21T13:23:51;11.20;99.90
38604;DHT22;24924;50.054;8.790;2024-02-21T13:26:37;11.10;99.90
38604;DHT22;24924;50.054;8.790;2024-02-21T13:29:23;10.90;99.90
38604;DHT22;24924;50.054;8.790;2024-02-21T13:32:09;11.00;99.90
38604;DHT22;24924;50.054;8.790;2024-02-21T13:34:55;10.90;99.90
38604;DHT22;24924;50.054;8.790;2024-02-21T13:37:43;10.90;99.90
38604;DHT22;24924;50.054;8.790;2024-02-21T13:40:29;10.90;99.90
38604;DHT22;24924;50.054;8.790;2024-02-21T13:43:15;10.90;99.90
38604;DHT22;24924;50.054;8.790;2024-02-21T13:46:01;11.00;99.90
38604;DHT22;24924;50.054;8.790;2024-02-21T13:48:54;10.90;99.90
38604;DHT22;24924;50.054;8.790;2024-02-21T13:51:44;11.00;99.90
38604;DHT22;24924;50.054;8.790;2024-02-21T13:54:31;11.00;99.90
38604;DHT22;24924;50.054;8.790;2024-02-21T13:57:17;11.10;99.90
38604;DHT22;24924;50.054;8.790;2024-02-21T14:00:04;11.20;99.90
38604;DHT22;24924;50.054;8.790;2024-02-21T14:02:59;11.30;99.90
38604;DHT22;24924;50.054;8.790;2024-02-21T14:05:46;11.60;99.90
38604;DHT22;24924;50.054;8.790;2024-02-21T14:08:34;11.70;99.90
38604;DHT22;24924;50.054;8.790;2024-02-21T14:11:21;11.70;99.90
38604;DHT22;24924;50.054;8.790;2024-02-21T14:14:08;11.80;99.90
38604;DHT22;24924;50.054;8.790;2024-02-21T14:16:54;11.80;99.90
38604;DHT22;24924;50.054;8.790;2024-02-21T14:19:42;11.90;99.90
38604;DHT22;24924;50.054;8.790;2024-02-21T14:22:28;11.90;99.90
38604;DHT22;24924;50.054;8.790;2024-02-21T14:25:15;11.70;99.90
38604;DHT22;24924;50.054;8.790;2024-02-21T14:28:01;11.80;99.90
38604;DHT22;24924;50.054;8.790;2024-02-21T14:30:48;11.80;99.90
38604;DHT22;24924;50.054;8.790;2024-02-21T14:33:35;11.70;99.90
38604;DHT22;24924;50.054;8.790;2024-02-21T14:36:21;11.70;99.90
38604;DHT22;24924;50.054;8.790;2024-02-21T14:39:10;11.60;99.90
38604;DHT22;24924;50.054;8.790;2024-02-21T14:41:56;11.60;99.90
38604;DHT22;24924;50.054;8.790;2024-02-21T14:44:42;11.50;99.90
38604;DHT22;24924;50.054;8.790;2024-02-21T14:47:31;11.60;99.90
38604;DHT22;24924;50.054;8.790;2024-02-21T14:50:17;11.50;99.90
38604;DHT22;24924;50.054;8.790;2024-02-21T14:53:04;11.40;99.90
38604;DHT22;24924;50.054;8.790;2024-02-21T14:55:50;11.40;99.90
38604;DHT22;24924;50.054;8.790;2024-02-21T14:58:36;11.40;99.90
38604;DHT22;24924;50.054;8.790;2024-02-21T15:01:22;11.40;99.90
38604;DHT22;24924;50.054;8.790;2024-02-21T15:04:08;11.30;99.90
38604;DHT22;24924;50.054;8.790;2024-02-21T15:06:54;11.40;99.90
38604;DHT22;24924;50.054;8.790;2024-02-21T15:09:40;11.50;99.90
38604;DHT22;24924;50.054;8.790;2024-02-21T15:12:27;11.50;99.90
38604;DHT22;24924;50.054;8.790;2024-02-21T15:15:13;11.40;99.90
38604;DHT22;24924;50.054;8.790;2024-02-21T15:17:59;11.40;99.90
38604;DHT22;24924;50.054;8.790;2024-02-21T15:20:46;11.30;99.90
38604;DHT22;24924;50.054;8.790;2024-02-21T15:23:32;11.30;99.90
38604;DHT22;24924;50.054;8.790;2024-02-21T15:26:18;11.30;99.90
38604;DHT22;24924;50.054;8.790;2024-02-21T15:29:05;11.20;99.90
38604;DHT22;24924;50.054;8.790;2024-02-21T15:31:51;11.20;99.90
38604;DHT22;24924;50.054;8.790;2024-02-21T15:34:38;11.20;99.90
38604;DHT22;24924;50.054;8.790;2024-02-21T15:37:24;11.10;99.90
38604;DHT22;24924;50.054;8.790;2024-02-21T15:40:11;11.10;99.90
38604;DHT22;24924;50.054;8.790;2024-02-21T15:42:57;11.10;99.90
38604;DHT22;24924;50.054;8.790;2024-02-21T15:45:43;11.00;99.90
38604;DHT22;24924;50.054;8.790;2024-02-21T15:48:29;11.00;99.90
38604;DHT22;24924;50.054;8.790;2024-02-21T15:51:16;11.10;99.90
38604;DHT22;24924;50.054;8.790;2024-02-21T15:54:02;11.10;99.90
38604;DHT22;24924;50.054;8.790;2024-02-21T15:56:49;11.00;99.90
38604;DHT22;24924;50.054;8.790;2024-02-21T15:59:35;11.00;99.90
38604;DHT22;24924;50.054;8.790;2024-02-21T16:02:21;11.00;99.90
38604;DHT22;24924;50.054;8.790;2024-02-21T16:05:10;11.00;99.90
38604;DHT22;24924;50.054;8.790;2024-02-21T16:07:57;10.90;99.90
38604;DHT22;24924;50.054;8.790;2024-02-21T16:10:43;10.90;99.90
38604;DHT22;24924;50.054;8.790;2024-02-21T16:13:30;10.90;99.90
38604;DHT22;24924;50.054;8.790;2024-02-21T16:16:16;10.90;99.90
38604;DHT22;24924;50.054;8.790;2024-02-21T16:19:02;10.90;99.90
38604;DHT22;24924;50.054;8.790;2024-02-21T16:21:51;10.90;99.90
38604;DHT22;24924;50.054;8.790;2024-02-21T16:24:37;10.90;99.90
38604;DHT22;24924;50.054;8.790;2024-02-21T16:27:23;10.80;99.90
38604;DHT22;24924;50.054;8.790;2024-02-21T16:30:11;10.80;99.90
38604;DHT22;24924;50.054;8.790;2024-02-21T16:32:57;10.80;99.90
38604;DHT22;24924;50.054;8.790;2024-02-21T16:35:43;10.80;99.90
38604;DHT22;24924;50.054;8.790;2024-02-21T16:38:30;10.80;99.90
38604;DHT22;24924;50.054;8.790;2024-02-21T16:41:19;10.70;99.90
38604;DHT22;24924;50.054;8.790;2024-02-21T16:44:06;10.80;99.90
38604;DHT22;24924;50.054;8.790;2024-02-21T16:46:55;10.70;99.90
38604;DHT22;24924;50.054;8.790;2024-02-21T16:49:41;10.70;99.90
38604;DHT22;24924;50.054;8.790;2024-02-21T16:52:28;10.60;99.90
38604;DHT22;24924;50.054;8.790;2024-02-21T16:55:14;10.60;99.90
38604;DHT22;24924;50.054;8.790;2024-02-21T16:58:00;10.60;99.90
38604;DHT22;24924;50.054;8.790;2024-02-21T17:00:47;10.60;99.90
38604;DHT22;24924;50.054;8.790;2024-02-21T17:03:34;10.50;99.90
38604;DHT22;24924;50.054;8.790;2024-02-21T17:06:20;10.50;99.90
38604;DHT22;24924;50.054;8.790;2024-02-21T17:09:07;10.30;99.90
38604;DHT22;24924;50.054;8.790;2024-02-21T17:11:53;10.40;99.90
38604;DHT22;24924;50.054;8.790;2024-02-21T17:14:40;10.30;99.90
38604;DHT22;24924;50.054;8.790;2024-02-21T17:17:26;10.50;99.90
38604;DHT22;24924;50.054;8.790;2024-02-21T17:20:12;10.50;99.90
38604;DHT22;24924;50.054;8.790;2024-02-21T17:22:59;10.50;99.90
38604;DHT22;24924;50.054;8.790;2024-02-21T17:25:45;10.50;99.90
38604;DHT22;24924;50.054;8.790;2024-02-21T17:28:32;10.40;99.90
38604;DHT22;24924;50.054;8.790;2024-02-21T17:31:18;10.40;99.90
38604;DHT22;24924;50.054;8.790;2024-02-21T17:34:05;10.40;99.90
38604;DHT22;24924;50.054;8.790;2024-02-21T17:36:51;10.40;99.90
38604;DHT22;24924;50.054;8.790;2024-02-21T17:39:37;10.40;99.90
38604;DHT22;24924;50.054;8.790;2024-02-21T17:42:23;10.40;99.90
38604;DHT22;24924;50.054;8.790;2024-02-21T17:45:10;10.40;99.90